PWSweather.com
Personal Weather Stations
Station Observations
CANDIOTINO
Barrio Candioti Norte, Santa FeAR 3000

Barrio Candioti NorteSanta FeAR 3000

Lat: -31.632778, Lon: -60.695556

Elevation: 69

Station Type: WH-1081

http://www.eltiempoensantafe.com.ar

High Low Average
Temperature 97.7°F36.5°F 76.3°F24.6°F 86.0°F30.0°F
Dew Point 72.8°F22.7°F 66.5°F19.2°F 70.0°F21.1°F
Winds 10.7 mph N17.2 mph N Calm Calm 4.5 mph 7.2 mph
Wind Gusts 18.3 mph29.5 mph 3.8 mph6.1 mph 10.5 mph16.9 mph
Humidity 84% 43% 60%
Pressure 29.72 in1006.40 in 29.52 in999.70 in -
Precipitation 0.00 in0.00 in - -
Hour Temp Dew Point Humidity Winds Wind Gusts Pressure Precip Precip Rate Daily Precip Total
12:09 AM 85.1°F29.5°C 69.7°F20.9°C 60% 6.0 mph N9.7 kmh N 13.0 mph20.9 kmh 29.72 in1006.4 mb 0.00 in0.0 mm 0.00 in0.0 mm 0.00 in0.0 mm
12:24 AM 84.6°F29.2°C 68.7°F20.4°C 59% 5.4 mph N8.7 kmh N 12.1 mph19.5 kmh 29.72 in1006.4 mb 0.00 in0.0 mm 0.00 in0.0 mm 0.00 in0.0 mm
12:39 AM 83.7°F28.7°C 68.4°F20.2°C 60% 9.2 mph N14.8 kmh N 13.6 mph21.9 kmh 29.72 in1006.4 mb 0.00 in0.0 mm 0.00 in0.0 mm 0.00 in0.0 mm
12:55 AM 83.1°F28.4°C 67.8°F19.9°C 60% 6.9 mph N11.1 kmh N 10.7 mph17.2 kmh 29.71 in1006.1 mb 0.00 in0.0 mm 0.00 in0.0 mm 0.00 in0.0 mm
01:10 AM 82.6°F28.1°C 67.8°F19.9°C 61% 4.5 mph N7.2 kmh N 9.2 mph14.8 kmh 29.71 in1006.1 mb 0.00 in0.0 mm 0.00 in0.0 mm 0.00 in0.0 mm
01:25 AM 82.0°F27.8°C 67.8°F19.9°C 62% 6.0 mph N9.7 kmh N 9.2 mph14.8 kmh 29.71 in1006.1 mb 0.00 in0.0 mm 0.00 in0.0 mm 0.00 in0.0 mm
01:40 AM 81.9°F27.7°C 67.6°F19.8°C 62% 2.2 mph N3.5 kmh N 7.6 mph12.2 kmh 29.70 in1005.8 mb 0.00 in0.0 mm 0.00 in0.0 mm 0.00 in0.0 mm
01:55 AM 81.7°F27.6°C 67.4°F19.7°C 62% 0.7 mph N1.1 kmh N 6.0 mph9.7 kmh 29.69 in1005.4 mb 0.00 in0.0 mm 0.00 in0.0 mm 0.00 in0.0 mm
02:10 AM 81.5°F27.5°C 67.3°F19.6°C 62% Calm Calm 5.4 mph8.7 kmh 29.69 in1005.4 mb 0.00 in0.0 mm 0.00 in0.0 mm 0.00 in0.0 mm
02:25 AM 81.1°F27.3°C 67.4°F19.7°C 63% 1.6 mph NNE2.6 kmh NNE 3.8 mph6.1 kmh 29.70 in1005.8 mb 0.00 in0.0 mm 0.00 in0.0 mm 0.00 in0.0 mm
02:40 AM 80.8°F27.1°C 67.5°F19.7°C 64% 0.7 mph NE1.1 kmh NE 4.5 mph7.2 kmh 29.69 in1005.4 mb 0.00 in0.0 mm 0.00 in0.0 mm 0.00 in0.0 mm
02:55 AM 80.6°F27.0°C 68.7°F20.4°C 67% 1.6 mph N2.6 kmh N 4.5 mph7.2 kmh 29.69 in1005.4 mb 0.00 in0.0 mm 0.00 in0.0 mm 0.00 in0.0 mm
03:10 AM 80.2°F26.8°C 69.6°F20.9°C 70% 3.1 mph NE5.0 kmh NE 8.3 mph13.4 kmh 29.69 in1005.4 mb 0.00 in0.0 mm 0.00 in0.0 mm 0.00 in0.0 mm
03:25 AM 80.2°F26.8°C 70.0°F21.1°C 71% 4.5 mph N7.2 kmh N 8.3 mph13.4 kmh 29.69 in1005.4 mb 0.00 in0.0 mm 0.00 in0.0 mm 0.00 in0.0 mm
03:40 AM 79.9°F26.6°C 70.1°F21.2°C 72% 1.6 mph N2.6 kmh N 7.6 mph12.2 kmh 29.68 in1005.1 mb 0.00 in0.0 mm 0.00 in0.0 mm 0.00 in0.0 mm
03:55 AM 79.7°F26.5°C 70.3°F21.3°C 73% 4.5 mph N7.2 kmh N 6.9 mph11.1 kmh 29.68 in1005.1 mb 0.00 in0.0 mm 0.00 in0.0 mm 0.00 in0.0 mm
04:10 AM 79.7°F26.5°C 69.9°F21.1°C 72% 5.4 mph NNE8.7 kmh NNE 11.4 mph18.3 kmh 29.68 in1005.1 mb 0.00 in0.0 mm 0.00 in0.0 mm 0.00 in0.0 mm
04:25 AM 79.3°F26.3°C 69.6°F20.9°C 72% 5.4 mph N8.7 kmh N 12.1 mph19.5 kmh 29.68 in1005.1 mb 0.00 in0.0 mm 0.00 in0.0 mm 0.00 in0.0 mm
04:40 AM 79.0°F26.1°C 70.0°F21.1°C 74% 3.8 mph N6.1 kmh N 17.4 mph28.0 kmh 29.67 in1004.7 mb 0.00 in0.0 mm 0.00 in0.0 mm 0.00 in0.0 mm
04:55 AM 78.8°F26.0°C 70.6°F21.4°C 76% 4.5 mph NNE7.2 kmh NNE 13.6 mph21.9 kmh 29.67 in1004.7 mb 0.00 in0.0 mm 0.00 in0.0 mm 0.00 in0.0 mm
05:10 AM 78.8°F26.0°C 71.4°F21.9°C 78% 3.8 mph N6.1 kmh N 9.8 mph15.8 kmh 29.67 in1004.7 mb 0.00 in0.0 mm 0.00 in0.0 mm 0.00 in0.0 mm
05:25 AM 78.3°F25.7°C 71.3°F21.8°C 79% 5.4 mph N8.7 kmh N 12.1 mph19.5 kmh 29.66 in1004.4 mb 0.00 in0.0 mm 0.00 in0.0 mm 0.00 in0.0 mm
05:40 AM 77.7°F25.4°C 71.1°F21.7°C 80% 3.8 mph N6.1 kmh N 12.1 mph19.5 kmh 29.67 in1004.7 mb 0.00 in0.0 mm 0.00 in0.0 mm 0.00 in0.0 mm
05:55 AM 77.2°F25.1°C 70.9°F21.6°C 81% 6.9 mph N11.1 kmh N 11.4 mph18.3 kmh 29.67 in1004.7 mb 0.00 in0.0 mm 0.00 in0.0 mm 0.00 in0.0 mm
06:10 AM 76.8°F24.9°C 71.3°F21.8°C 83% 6.0 mph N9.7 kmh N 10.7 mph17.2 kmh 29.68 in1005.1 mb 0.00 in0.0 mm 0.00 in0.0 mm 0.00 in0.0 mm
06:25 AM 76.5°F24.7°C 71.3°F21.8°C 84% 3.8 mph N6.1 kmh N 9.2 mph14.8 kmh 29.68 in1005.1 mb 0.00 in0.0 mm 0.00 in0.0 mm 0.00 in0.0 mm
06:40 AM 76.3°F24.6°C 71.1°F21.7°C 84% 7.6 mph N12.2 kmh N 11.4 mph18.3 kmh 29.68 in1005.1 mb 0.00 in0.0 mm 0.00 in0.0 mm 0.00 in0.0 mm
06:55 AM 76.3°F24.6°C 70.8°F21.6°C 83% 3.1 mph N5.0 kmh N 10.7 mph17.2 kmh 29.68 in1005.1 mb 0.00 in0.0 mm 0.00 in0.0 mm 0.00 in0.0 mm
07:10 AM 76.5°F24.7°C 70.6°F21.4°C 82% 3.8 mph NNW6.1 kmh NNW 8.3 mph13.4 kmh 29.69 in1005.4 mb 0.00 in0.0 mm 0.00 in0.0 mm 0.00 in0.0 mm
07:25 AM 77.0°F25.0°C 70.0°F21.1°C 79% 5.4 mph NNW8.7 kmh NNW 10.7 mph17.2 kmh 29.69 in1005.4 mb 0.00 in0.0 mm 0.00 in0.0 mm 0.00 in0.0 mm
07:40 AM 78.3°F25.7°C 69.7°F20.9°C 75% 6.0 mph NNW9.7 kmh NNW 9.2 mph14.8 kmh 29.69 in1005.4 mb 0.00 in0.0 mm 0.00 in0.0 mm 0.00 in0.0 mm
07:55 AM 79.2°F26.2°C 69.0°F20.6°C 71% 3.8 mph N6.1 kmh N 10.7 mph17.2 kmh 29.70 in1005.8 mb 0.00 in0.0 mm 0.00 in0.0 mm 0.00 in0.0 mm
08:10 AM 80.2°F26.8°C 69.6°F20.9°C 70% 2.2 mph N3.5 kmh N 10.7 mph17.2 kmh 29.69 in1005.4 mb 0.00 in0.0 mm 0.00 in0.0 mm 0.00 in0.0 mm
08:25 AM 79.5°F26.4°C 69.3°F20.7°C 71% 7.6 mph N12.2 kmh N 11.4 mph18.3 kmh 29.70 in1005.8 mb 0.00 in0.0 mm 0.00 in0.0 mm 0.00 in0.0 mm
08:40 AM 80.2°F26.8°C 70.0°F21.1°C 71% 5.4 mph NW8.7 kmh NW 13.0 mph20.9 kmh 29.70 in1005.8 mb 0.00 in0.0 mm 0.00 in0.0 mm 0.00 in0.0 mm
08:55 AM 81.5°F27.5°C 69.5°F20.8°C 67% 6.9 mph NNW11.1 kmh NNW 11.4 mph18.3 kmh 29.70 in1005.8 mb 0.00 in0.0 mm 0.00 in0.0 mm 0.00 in0.0 mm
09:10 AM 82.0°F27.8°C 69.6°F20.9°C 66% 5.4 mph N8.7 kmh N 12.1 mph19.5 kmh 29.69 in1005.4 mb 0.00 in0.0 mm 0.00 in0.0 mm 0.00 in0.0 mm
09:25 AM 83.3°F28.5°C 69.9°F21.1°C 64% 5.4 mph N8.7 kmh N 11.4 mph18.3 kmh 29.69 in1005.4 mb 0.00 in0.0 mm 0.00 in0.0 mm 0.00 in0.0 mm
09:40 AM 84.4°F29.1°C 69.5°F20.8°C 61% 2.2 mph N3.5 kmh N 9.8 mph15.8 kmh 29.69 in1005.4 mb 0.00 in0.0 mm 0.00 in0.0 mm 0.00 in0.0 mm
09:55 AM 86.9°F30.5°C 69.4°F20.8°C 56% 3.8 mph NNW6.1 kmh NNW 10.7 mph17.2 kmh 29.69 in1005.4 mb 0.00 in0.0 mm 0.00 in0.0 mm 0.00 in0.0 mm
10:10 AM 86.9°F30.5°C 68.8°F20.4°C 55% 5.4 mph NW8.7 kmh NW 9.8 mph15.8 kmh 29.69 in1005.4 mb 0.00 in0.0 mm 0.00 in0.0 mm 0.00 in0.0 mm
10:25 AM 88.0°F31.1°C 69.3°F20.7°C 54% 7.6 mph NNE12.2 kmh NNE 11.4 mph18.3 kmh 29.68 in1005.1 mb 0.00 in0.0 mm 0.00 in0.0 mm 0.00 in0.0 mm
10:40 AM 90.5°F32.5°C 71.7°F22.1°C 54% 2.2 mph NE3.5 kmh NE 7.6 mph12.2 kmh 29.68 in1005.1 mb 0.00 in0.0 mm 0.00 in0.0 mm 0.00 in0.0 mm
10:55 AM 90.3°F32.4°C 70.9°F21.6°C 53% 5.4 mph N8.7 kmh N 13.6 mph21.9 kmh 29.68 in1005.1 mb 0.00 in0.0 mm 0.00 in0.0 mm 0.00 in0.0 mm
11:10 AM 89.8°F32.1°C 69.9°F21.1°C 52% 6.0 mph NNW9.7 kmh NNW 12.1 mph19.5 kmh 29.68 in1005.1 mb 0.00 in0.0 mm 0.00 in0.0 mm 0.00 in0.0 mm
11:25 AM 90.0°F32.2°C 69.5°F20.8°C 51% 6.0 mph N9.7 kmh N 10.7 mph17.2 kmh 29.68 in1005.1 mb 0.00 in0.0 mm 0.00 in0.0 mm 0.00 in0.0 mm
11:40 AM 90.5°F32.5°C 70.0°F21.1°C 51% 6.9 mph NNW11.1 kmh NNW 15.9 mph25.6 kmh 29.68 in1005.1 mb 0.00 in0.0 mm 0.00 in0.0 mm 0.00 in0.0 mm
11:55 AM 90.3°F32.4°C 68.0°F20.0°C 48% 10.7 mph N17.2 kmh N 18.3 mph29.5 kmh 29.67 in1004.7 mb 0.00 in0.0 mm 0.00 in0.0 mm 0.00 in0.0 mm
12:10 PM 90.5°F32.5°C 68.2°F20.1°C 48% 7.6 mph NNW12.2 kmh NNW 15.9 mph25.6 kmh 29.66 in1004.4 mb 0.00 in0.0 mm 0.00 in0.0 mm 0.00 in0.0 mm
12:25 PM 91.9°F33.3°C 69.5°F20.8°C 48% 7.6 mph N12.2 kmh N 15.2 mph24.5 kmh 29.65 in1004.1 mb 0.00 in0.0 mm 0.00 in0.0 mm 0.00 in0.0 mm
12:40 PM 91.9°F33.3°C 69.5°F20.8°C 48% 5.4 mph N8.7 kmh N 11.4 mph18.3 kmh 29.65 in1004.1 mb 0.00 in0.0 mm 0.00 in0.0 mm 0.00 in0.0 mm
12:55 PM 92.8°F33.8°C 69.7°F20.9°C 47% 3.8 mph N6.1 kmh N 10.7 mph17.2 kmh 29.64 in1003.7 mb 0.00 in0.0 mm 0.00 in0.0 mm 0.00 in0.0 mm
01:10 PM 94.1°F34.5°C 71.5°F21.9°C 48% 2.2 mph NE3.5 kmh NE 8.3 mph13.4 kmh 29.63 in1003.4 mb 0.00 in0.0 mm 0.00 in0.0 mm 0.00 in0.0 mm
01:25 PM 93.2°F34.0°C 70.7°F21.5°C 48% 2.2 mph NE3.5 kmh NE 9.2 mph14.8 kmh 29.63 in1003.4 mb 0.00 in0.0 mm 0.00 in0.0 mm 0.00 in0.0 mm
01:40 PM 93.9°F34.4°C 71.3°F21.8°C 48% 4.5 mph E7.2 kmh E 9.2 mph14.8 kmh 29.61 in1002.7 mb 0.00 in0.0 mm 0.00 in0.0 mm 0.00 in0.0 mm
01:55 PM 94.8°F34.9°C 72.1°F22.3°C 48% 3.1 mph E5.0 kmh E 9.8 mph15.8 kmh 29.60 in1002.4 mb 0.00 in0.0 mm 0.00 in0.0 mm 0.00 in0.0 mm
02:10 PM 95.9°F35.5°C 70.6°F21.4°C 44% 2.2 mph N3.5 kmh N 10.7 mph17.2 kmh 29.59 in1002.0 mb 0.00 in0.0 mm 0.00 in0.0 mm 0.00 in0.0 mm
02:25 PM 97.7°F36.5°C 71.5°F21.9°C 43% 3.1 mph NE5.0 kmh NE 9.8 mph15.8 kmh 29.59 in1002.0 mb 0.00 in0.0 mm 0.00 in0.0 mm 0.00 in0.0 mm
02:40 PM 95.4°F35.2°C 70.7°F21.5°C 45% 5.4 mph NE8.7 kmh NE 11.4 mph18.3 kmh 29.58 in1001.7 mb 0.00 in0.0 mm 0.00 in0.0 mm 0.00 in0.0 mm
02:55 PM 97.0°F36.1°C 70.9°F21.6°C 43% 3.8 mph ENE6.1 kmh ENE 10.7 mph17.2 kmh 29.58 in1001.7 mb 0.00 in0.0 mm 0.00 in0.0 mm 0.00 in0.0 mm
03:10 PM 96.8°F36.0°C 70.7°F21.5°C 43% 6.0 mph ENE9.7 kmh ENE 9.8 mph15.8 kmh 29.57 in1001.4 mb 0.00 in0.0 mm 0.00 in0.0 mm 0.00 in0.0 mm
03:25 PM 94.8°F34.9°C 72.1°F22.3°C 48% 7.6 mph E12.2 kmh E 13.0 mph20.9 kmh 29.57 in1001.4 mb 0.00 in0.0 mm 0.00 in0.0 mm 0.00 in0.0 mm
03:40 PM 93.9°F34.4°C 72.5°F22.5°C 50% 7.6 mph NNE12.2 kmh NNE 13.6 mph21.9 kmh 29.56 in1001.0 mb 0.00 in0.0 mm 0.00 in0.0 mm 0.00 in0.0 mm
03:55 PM 94.8°F34.9°C 72.1°F22.3°C 48% 6.0 mph ENE9.7 kmh ENE 14.5 mph23.3 kmh 29.55 in1000.7 mb 0.00 in0.0 mm 0.00 in0.0 mm 0.00 in0.0 mm
04:10 PM 94.3°F34.6°C 71.7°F22.1°C 48% 5.4 mph NE8.7 kmh NE 13.0 mph20.9 kmh 29.55 in1000.7 mb 0.00 in0.0 mm 0.00 in0.0 mm 0.00 in0.0 mm
04:25 PM 90.9°F32.7°C 71.4°F21.9°C 53% 3.1 mph NE5.0 kmh NE 12.1 mph19.5 kmh 29.55 in1000.7 mb 0.00 in0.0 mm 0.00 in0.0 mm 0.00 in0.0 mm
04:40 PM 90.9°F32.7°C 72.0°F22.2°C 54% 4.5 mph NNE7.2 kmh NNE 10.7 mph17.2 kmh 29.54 in1000.3 mb 0.00 in0.0 mm 0.00 in0.0 mm 0.00 in0.0 mm
04:55 PM 90.9°F32.7°C 72.0°F22.2°C 54% 5.4 mph NE8.7 kmh NE 11.4 mph18.3 kmh 29.53 in1000.0 mb 0.00 in0.0 mm 0.00 in0.0 mm 0.00 in0.0 mm
05:10 PM 90.9°F32.7°C 71.4°F21.9°C 53% 6.0 mph NE9.7 kmh NE 9.8 mph15.8 kmh 29.53 in1000.0 mb 0.00 in0.0 mm 0.00 in0.0 mm 0.00 in0.0 mm
05:25 PM 95.0°F35.0°C 71.7°F22.1°C 47% 3.1 mph NE5.0 kmh NE 10.7 mph17.2 kmh 29.54 in1000.3 mb 0.00 in0.0 mm 0.00 in0.0 mm 0.00 in0.0 mm
05:40 PM 95.5°F35.3°C 72.8°F22.7°C 48% 7.6 mph NE12.2 kmh NE 12.1 mph19.5 kmh 29.53 in1000.0 mb 0.00 in0.0 mm 0.00 in0.0 mm 0.00 in0.0 mm
05:55 PM 94.8°F34.9°C 71.5°F21.9°C 47% 5.4 mph NE8.7 kmh NE 13.0 mph20.9 kmh 29.52 in999.7 mb 0.00 in0.0 mm 0.00 in0.0 mm 0.00 in0.0 mm
06:10 PM 91.4°F33.0°C 70.8°F21.6°C 51% 3.1 mph NE5.0 kmh NE 11.4 mph18.3 kmh 29.52 in999.7 mb 0.00 in0.0 mm 0.00 in0.0 mm 0.00 in0.0 mm
06:25 PM 89.4°F31.9°C 71.7°F22.1°C 56% 5.4 mph N8.7 kmh N 10.7 mph17.2 kmh 29.52 in999.7 mb 0.00 in0.0 mm 0.00 in0.0 mm 0.00 in0.0 mm
06:40 PM 89.4°F31.9°C 71.2°F21.8°C 55% 4.5 mph NE7.2 kmh NE 9.2 mph14.8 kmh 29.52 in999.7 mb 0.00 in0.0 mm 0.00 in0.0 mm 0.00 in0.0 mm
06:55 PM 91.0°F32.8°C 71.0°F21.7°C 52% 3.1 mph NNE5.0 kmh NNE 9.2 mph14.8 kmh 29.52 in999.7 mb 0.00 in0.0 mm 0.00 in0.0 mm 0.00 in0.0 mm
07:10 PM 89.4°F31.9°C 71.7°F22.1°C 56% 4.5 mph NNE7.2 kmh NNE 7.6 mph12.2 kmh 29.53 in1000.0 mb 0.00 in0.0 mm 0.00 in0.0 mm 0.00 in0.0 mm
07:25 PM 88.9°F31.6°C 71.7°F22.1°C 57% 3.8 mph NE6.1 kmh NE 9.2 mph14.8 kmh 29.54 in1000.3 mb 0.00 in0.0 mm 0.00 in0.0 mm 0.00 in0.0 mm
07:40 PM 88.5°F31.4°C 71.4°F21.9°C 57% 3.1 mph NE5.0 kmh NE 8.3 mph13.4 kmh 29.55 in1000.7 mb 0.00 in0.0 mm 0.00 in0.0 mm 0.00 in0.0 mm
07:55 PM 87.4°F30.8°C 71.4°F21.9°C 59% 3.1 mph NNE5.0 kmh NNE 8.3 mph13.4 kmh 29.56 in1001.0 mb 0.00 in0.0 mm 0.00 in0.0 mm 0.00 in0.0 mm
08:10 PM 87.3°F30.7°C 71.2°F21.8°C 59% 3.8 mph N6.1 kmh N 6.9 mph11.1 kmh 29.57 in1001.4 mb 0.00 in0.0 mm 0.00 in0.0 mm 0.00 in0.0 mm
08:25 PM 87.1°F30.6°C 70.6°F21.4°C 58% 3.8 mph N6.1 kmh N 7.6 mph12.2 kmh 29.57 in1001.4 mb 0.00 in0.0 mm 0.00 in0.0 mm 0.00 in0.0 mm
08:40 PM 86.9°F30.5°C 68.8°F20.4°C 55% 3.8 mph NNE6.1 kmh NNE 12.1 mph19.5 kmh 29.57 in1001.4 mb 0.00 in0.0 mm 0.00 in0.0 mm 0.00 in0.0 mm
08:55 PM 86.4°F30.2°C 67.8°F19.9°C 54% 4.5 mph N7.2 kmh N 9.8 mph15.8 kmh 29.58 in1001.7 mb 0.00 in0.0 mm 0.00 in0.0 mm 0.00 in0.0 mm
09:10 PM 86.4°F30.2°C 67.3°F19.6°C 53% 6.0 mph NNE9.7 kmh NNE 8.3 mph13.4 kmh 29.58 in1001.7 mb 0.00 in0.0 mm 0.00 in0.0 mm 0.00 in0.0 mm
09:25 PM 86.2°F30.1°C 67.1°F19.5°C 53% 3.8 mph N6.1 kmh N 12.1 mph19.5 kmh 29.58 in1001.7 mb 0.00 in0.0 mm 0.00 in0.0 mm 0.00 in0.0 mm
09:40 PM 86.2°F30.1°C 66.5°F19.2°C 52% 1.6 mph N2.6 kmh N 8.3 mph13.4 kmh 29.58 in1001.7 mb 0.00 in0.0 mm 0.00 in0.0 mm 0.00 in0.0 mm
09:55 PM 85.5°F29.7°C 68.0°F20.0°C 56% 2.2 mph N3.5 kmh N 9.2 mph14.8 kmh 29.59 in1002.0 mb 0.00 in0.0 mm 0.00 in0.0 mm 0.00 in0.0 mm
10:10 PM 84.7°F29.3°C 69.4°F20.8°C 60% 2.2 mph N3.5 kmh N 8.3 mph13.4 kmh 29.58 in1001.7 mb 0.00 in0.0 mm 0.00 in0.0 mm 0.00 in0.0 mm
10:25 PM 84.2°F29.0°C 70.3°F21.3°C 63% 2.2 mph N3.5 kmh N 7.6 mph12.2 kmh 29.59 in1002.0 mb 0.00 in0.0 mm 0.00 in0.0 mm 0.00 in0.0 mm
10:40 PM 84.0°F28.9°C 70.6°F21.4°C 64% 3.1 mph N5.0 kmh N 9.2 mph14.8 kmh 29.58 in1001.7 mb 0.00 in0.0 mm 0.00 in0.0 mm 0.00 in0.0 mm
10:55 PM 84.0°F28.9°C 69.7°F20.9°C 62% 3.8 mph NNE6.1 kmh NNE 9.8 mph15.8 kmh 29.58 in1001.7 mb 0.00 in0.0 mm 0.00 in0.0 mm 0.00 in0.0 mm
11:10 PM 83.7°F28.7°C 68.8°F20.4°C 61% 5.4 mph N8.7 kmh N 10.7 mph17.2 kmh 29.58 in1001.7 mb 0.00 in0.0 mm 0.00 in0.0 mm 0.00 in0.0 mm
11:25 PM 83.1°F28.4°C 67.8°F19.9°C 60% 3.1 mph N5.0 kmh N 15.2 mph24.5 kmh 29.58 in1001.7 mb 0.00 in0.0 mm 0.00 in0.0 mm 0.00 in0.0 mm
11:40 PM 82.4°F28.0°C 67.2°F19.6°C 60% 2.2 mph N3.5 kmh N 13.6 mph21.9 kmh 29.58 in1001.7 mb 0.00 in0.0 mm 0.00 in0.0 mm 0.00 in0.0 mm
11:55 PM 81.9°F27.7°C 67.6°F19.8°C 62% 3.8 mph N6.1 kmh N 9.2 mph14.8 kmh 29.58 in1001.7 mb 0.00 in0.0 mm 0.00 in0.0 mm 0.00 in0.0 mm